createdAt,value
2023-03-22T00:00:14.664Z,0
2023-03-22T00:01:29.074Z,0
2023-03-22T00:02:43.402Z,0
2023-03-22T00:03:57.678Z,0
2023-03-22T00:05:12.098Z,0
2023-03-22T00:07:40.834Z,0
2023-03-22T00:08:55.114Z,0
2023-03-22T00:10:09.400Z,0
2023-03-22T00:11:23.799Z,0
2023-03-22T00:12:38.116Z,0
2023-03-22T00:13:52.406Z,0
2023-03-22T00:15:06.690Z,0
2023-03-22T00:16:21.088Z,0
2023-03-22T00:18:49.691Z,0
2023-03-22T00:20:03.981Z,0
2023-03-22T00:21:18.385Z,0
2023-03-22T00:22:32.703Z,0
2023-03-22T00:23:46.983Z,0
2023-03-22T00:25:01.274Z,0
2023-03-22T00:26:15.672Z,0
2023-03-22T00:27:29.998Z,0
2023-03-22T00:28:44.290Z,0
2023-03-22T00:29:58.680Z,0
2023-03-22T00:31:13.000Z,0
2023-03-22T00:32:27.418Z,0
2023-03-22T00:33:41.700Z,0
2023-03-22T00:34:55.975Z,0
2023-03-22T00:36:10.381Z,0
2023-03-22T00:37:24.705Z,0
2023-03-22T00:38:38.985Z,0
2023-03-22T00:39:53.419Z,0
2023-03-22T00:41:07.826Z,0
2023-03-22T00:42:22.148Z,0
2023-03-22T00:44:50.713Z,0
2023-03-22T00:46:05.105Z,0
2023-03-22T00:47:19.427Z,0
2023-03-22T00:48:33.720Z,0
2023-03-22T00:49:48.148Z,0
2023-03-22T00:53:31.158Z,0
2023-03-22T00:54:45.566Z,0
2023-03-22T00:55:59.979Z,0
2023-03-22T00:57:14.309Z,0
2023-03-22T00:58:28.579Z,0
2023-03-22T00:59:43.006Z,0
2023-03-22T01:00:57.409Z,0
2023-03-22T01:02:11.749Z,0
2023-03-22T01:03:26.031Z,0
2023-03-22T01:04:40.433Z,0
2023-03-22T01:05:54.835Z,0
2023-03-22T01:07:09.163Z,0
2023-03-22T01:08:23.438Z,0
2023-03-22T01:09:37.718Z,0
2023-03-22T01:10:52.124Z,0
2023-03-22T01:12:06.445Z,0
2023-03-22T01:13:20.737Z,0
2023-03-22T01:14:35.019Z,0
2023-03-22T01:15:49.418Z,0
2023-03-22T01:17:03.731Z,0
2023-03-22T01:18:18.018Z,0
2023-03-22T01:19:32.311Z,0
2023-03-22T01:20:46.715Z,0
2023-03-22T01:22:01.043Z,0
2023-03-22T01:23:15.311Z,0
2023-03-22T01:24:29.586Z,0
2023-03-22T01:25:43.996Z,0
2023-03-22T01:26:58.327Z,0
2023-03-22T01:28:12.604Z,0
2023-03-22T01:29:27.029Z,0
2023-03-22T01:30:41.437Z,0
2023-03-22T01:31:55.755Z,0
2023-03-22T01:33:10.034Z,0
2023-03-22T01:34:24.313Z,0
2023-03-22T01:35:38.734Z,0
2023-03-22T01:36:53.060Z,0
2023-03-22T01:38:07.336Z,0
2023-03-22T01:39:21.603Z,0
2023-03-22T01:40:36.023Z,0
2023-03-22T01:41:50.333Z,0
2023-03-22T01:43:04.627Z,0
2023-03-22T01:44:18.914Z,0
2023-03-22T01:45:33.315Z,0
2023-03-22T01:46:47.631Z,0
2023-03-22T01:48:01.912Z,0
2023-03-22T01:49:16.188Z,0
2023-03-22T01:50:30.594Z,0
2023-03-22T01:51:44.923Z,0
2023-03-22T01:52:59.209Z,0
2023-03-22T01:54:13.620Z,0
2023-03-22T01:55:28.025Z,0
2023-03-22T01:56:42.336Z,0
2023-03-22T01:57:56.625Z,0
2023-03-22T01:59:11.048Z,0
2023-03-22T02:00:25.453Z,0
2023-03-22T02:01:39.782Z,0
2023-03-22T02:02:54.061Z,0
2023-03-22T02:04:08.341Z,0
2023-03-22T02:05:22.745Z,0
2023-03-22T02:06:37.069Z,0
2023-03-22T02:07:51.343Z,0
2023-03-22T02:09:05.624Z,0
2023-03-22T02:10:20.037Z,0
2023-03-22T02:11:34.361Z,0
2023-03-22T02:12:48.636Z,0
2023-03-22T02:14:02.929Z,0
2023-03-22T02:15:17.334Z,0
2023-03-22T02:16:31.656Z,0
2023-03-22T02:17:45.929Z,0
2023-03-22T02:19:00.219Z,0
2023-03-22T02:20:14.624Z,0
2023-03-22T02:21:28.946Z,0
2023-03-22T02:22:43.220Z,0
2023-03-22T02:23:57.622Z,0
2023-03-22T02:25:12.039Z,0
2023-03-22T02:26:26.364Z,0
2023-03-22T02:27:40.642Z,0
2023-03-22T02:28:54.926Z,0
2023-03-22T02:30:09.328Z,0
2023-03-22T02:32:37.936Z,0
2023-03-22T02:33:52.350Z,0
2023-03-22T02:35:06.757Z,0
2023-03-22T02:36:21.086Z,0
2023-03-22T02:37:35.367Z,0
2023-03-22T02:38:49.783Z,0
2023-03-22T02:40:04.197Z,0
2023-03-22T02:41:18.516Z,0
2023-03-22T02:43:47.080Z,0
2023-03-22T02:45:01.498Z,0
2023-03-22T02:46:15.818Z,0
2023-03-22T02:47:30.098Z,0
2023-03-22T02:48:44.377Z,0
2023-03-22T02:49:58.789Z,0
2023-03-22T02:51:13.109Z,0
2023-03-22T02:52:27.514Z,0
2023-03-22T02:53:41.844Z,0
2023-03-22T02:54:56.106Z,0
2023-03-22T02:56:10.526Z,0
2023-03-22T02:57:24.000Z,0
2023-03-22T02:58:39.122Z,0
2023-03-22T02:59:53.398Z,0
2023-03-22T03:01:07.822Z,0
2023-03-22T03:02:22.133Z,0
2023-03-22T03:03:36.420Z,0
2023-03-22T03:04:50.698Z,0
2023-03-22T03:06:05.101Z,0
2023-03-22T03:07:19.439Z,0
2023-03-22T03:08:33.709Z,0
2023-03-22T03:09:47.992Z,0
2023-03-22T03:11:02.401Z,0
2023-03-22T03:13:30.993Z,0
2023-03-22T03:14:45.292Z,0
2023-03-22T03:15:59.687Z,0
2023-03-22T03:17:14.019Z,0
2023-03-22T03:18:28.288Z,0
2023-03-22T03:19:42.585Z,0
2023-03-22T03:20:56.989Z,0
2023-03-22T03:22:11.313Z,0
2023-03-22T03:23:25.723Z,0
2023-03-22T03:24:40.052Z,0
2023-03-22T03:25:54.475Z,0
2023-03-22T03:27:08.885Z,0
2023-03-22T03:28:23.199Z,0
2023-03-22T03:29:37.483Z,0
2023-03-22T03:30:51.923Z,0
2023-03-22T03:33:20.643Z,0
2023-03-22T03:35:49.202Z,0
2023-03-22T03:37:03.613Z,0
2023-03-22T03:38:17.940Z,0
2023-03-22T03:39:32.222Z,0
2023-03-22T03:40:46.638Z,0
2023-03-22T03:42:01.040Z,0
2023-03-22T03:43:15.377Z,0
2023-03-22T03:44:29.652Z,0
2023-03-22T03:45:44.049Z,0
2023-03-22T03:48:12.786Z,0
2023-03-22T03:49:27.075Z,0
2023-03-22T03:50:41.474Z,0
2023-03-22T03:51:55.874Z,0
2023-03-22T03:53:10.197Z,0
2023-03-22T03:54:24.471Z,0
2023-03-22T03:55:38.768Z,0
2023-03-22T03:56:53.166Z,0
2023-03-22T03:58:07.488Z,0
2023-03-22T03:59:21.767Z,0
2023-03-22T04:00:36.064Z,0
2023-03-22T04:03:04.784Z,0
2023-03-22T04:04:19.059Z,0
2023-03-22T04:05:33.345Z,0
2023-03-22T04:06:47.759Z,0
2023-03-22T04:08:02.066Z,0
2023-03-22T04:09:16.362Z,0
2023-03-22T04:10:30.789Z,0
2023-03-22T04:11:45.183Z,0
2023-03-22T04:12:59.514Z,0
2023-03-22T04:14:13.783Z,0
2023-03-22T04:15:28.211Z,0
2023-03-22T04:17:56.954Z,0
2023-03-22T04:20:25.507Z,0
2023-03-22T04:21:39.919Z,0
2023-03-22T04:22:54.245Z,0
2023-03-22T04:24:08.512Z,0
2023-03-22T04:25:22.917Z,0
2023-03-22T04:26:37.331Z,0
2023-03-22T04:27:51.646Z,0
2023-03-22T04:29:05.941Z,0
2023-03-22T04:30:20.210Z,0
2023-03-22T04:32:48.952Z,0
2023-03-22T04:34:03.226Z,0
2023-03-22T04:35:17.652Z,0
2023-03-22T04:36:32.052Z,0
2023-03-22T04:37:46.391Z,0
2023-03-22T04:39:00.656Z,0
2023-03-22T04:40:15.065Z,0
2023-03-22T04:41:29.466Z,0
2023-03-22T04:42:43.797Z,0
2023-03-22T04:43:58.087Z,0
2023-03-22T04:45:12.361Z,0
2023-03-22T04:46:26.763Z,0
2023-03-22T04:47:41.084Z,0
2023-03-22T04:48:55.325Z,0
2023-03-22T04:50:09.698Z,0
2023-03-22T04:51:23.998Z,0
2023-03-22T04:52:38.227Z,0
2023-03-22T04:53:52.461Z,0
2023-03-22T04:55:06.791Z,0
2023-03-22T04:56:21.078Z,0
2023-03-22T04:57:35.424Z,0
2023-03-22T04:58:49.668Z,0
2023-03-22T05:00:03.890Z,0
2023-03-22T05:01:18.116Z,0
2023-03-22T05:02:32.345Z,0
2023-03-22T05:03:46.637Z,0
2023-03-22T05:05:00.893Z,0
2023-03-22T05:06:15.106Z,0
2023-03-22T05:07:29.345Z,0
2023-03-22T05:08:43.564Z,0
2023-03-22T05:09:57.871Z,0
2023-03-22T05:11:12.095Z,0
2023-03-22T05:12:26.461Z,0
2023-03-22T05:13:40.685Z,0
2023-03-22T05:14:54.914Z,0
2023-03-22T05:16:09.210Z,0
2023-03-22T05:17:23.451Z,0
2023-03-22T05:18:37.680Z,0
2023-03-22T05:19:52.049Z,0
2023-03-22T05:21:06.269Z,5
2023-03-22T05:22:20.577Z,5
2023-03-22T05:23:34.804Z,5
2023-03-22T05:24:49.037Z,5
2023-03-22T05:26:03.270Z,11
2023-03-22T05:27:17.487Z,11
2023-03-22T05:28:31.784Z,11
2023-03-22T05:29:46.032Z,16
2023-03-22T05:31:00.264Z,16
2023-03-22T05:32:14.604Z,22
2023-03-22T05:33:28.824Z,22
2023-03-22T05:34:43.126Z,28
2023-03-22T05:35:57.380Z,33
2023-03-22T05:38:25.825Z,45
2023-03-22T05:39:40.061Z,45
2023-03-22T05:40:54.345Z,50
2023-03-22T05:42:08.584Z,50
2023-03-22T05:43:22.821Z,56
2023-03-22T05:44:37.041Z,56
2023-03-22T05:45:51.280Z,61
2023-03-22T05:47:05.572Z,67
2023-03-22T05:48:19.809Z,67
2023-03-22T05:49:34.048Z,78
2023-03-22T05:50:48.273Z,78
2023-03-22T05:53:16.930Z,95
2023-03-22T05:54:31.185Z,101
2023-03-22T05:55:45.406Z,106
2023-03-22T05:56:59.637Z,106
2023-03-22T05:58:13.854Z,118
2023-03-22T05:59:28.166Z,129
2023-03-22T06:00:42.396Z,135
2023-03-22T06:01:56.630Z,140
2023-03-22T06:03:11.000Z,151
2023-03-22T06:04:25.230Z,157
2023-03-22T06:05:39.529Z,151
2023-03-22T06:06:53.769Z,146
2023-03-22T06:08:07.988Z,157
2023-03-22T06:09:22.208Z,157
2023-03-22T06:10:36.452Z,157
2023-03-22T06:11:50.742Z,168
2023-03-22T06:13:04.984Z,168
2023-03-22T06:14:19.201Z,174
2023-03-22T06:15:33.433Z,168
2023-03-22T06:16:47.793Z,163
2023-03-22T06:19:16.319Z,151
2023-03-22T06:20:30.551Z,163
2023-03-22T06:21:44.785Z,168
2023-03-22T06:22:59.005Z,163
2023-03-22T06:24:13.310Z,163
2023-03-22T06:25:27.543Z,151
2023-03-22T06:26:41.779Z,157
2023-03-22T06:27:56.010Z,146
2023-03-22T06:29:10.219Z,135
2023-03-22T06:30:24.523Z,135
2023-03-22T06:34:07.222Z,135
2023-03-22T06:35:21.454Z,140
2023-03-22T06:36:35.752Z,151
2023-03-22T06:37:49.990Z,157
2023-03-22T06:39:04.365Z,163
2023-03-22T06:40:18.590Z,163
2023-03-22T06:41:32.966Z,157
2023-03-22T06:42:47.250Z,151
2023-03-22T06:44:01.501Z,146
2023-03-22T06:45:15.725Z,151
2023-03-22T06:46:29.942Z,163
2023-03-22T06:47:44.179Z,185
2023-03-22T06:48:58.476Z,191
2023-03-22T06:50:12.726Z,202
2023-03-22T06:51:26.936Z,219
2023-03-22T06:52:41.170Z,241
2023-03-22T06:53:55.550Z,253
2023-03-22T06:55:09.837Z,270
2023-03-22T06:56:24.086Z,275
2023-03-22T06:57:38.300Z,298
2023-03-22T06:58:52.540Z,309
2023-03-22T07:00:06.756Z,326
2023-03-22T07:01:21.070Z,331
2023-03-22T07:02:35.302Z,331
2023-03-22T07:05:03.762Z,337
2023-03-22T07:06:17.976Z,331
2023-03-22T07:07:32.289Z,320
2023-03-22T07:08:46.532Z,309
2023-03-22T07:10:00.755Z,303
2023-03-22T07:11:15.125Z,286
2023-03-22T07:12:29.342Z,270
2023-03-22T07:13:43.640Z,247
2023-03-22T07:14:57.880Z,241
2023-03-22T07:16:12.000Z,230
2023-03-22T07:17:26.458Z,225
2023-03-22T07:18:40.694Z,219
2023-03-22T07:19:54.979Z,219
2023-03-22T07:21:09.226Z,213
2023-03-22T07:22:23.450Z,213
2023-03-22T07:23:37.686Z,208
2023-03-22T07:24:51.895Z,213
2023-03-22T07:26:06.209Z,213
2023-03-22T07:27:20.454Z,219
2023-03-22T07:28:34.810Z,230
2023-03-22T07:29:49.052Z,236
2023-03-22T07:31:03.382Z,241
2023-03-22T07:32:17.690Z,241
2023-03-22T07:33:31.926Z,230
2023-03-22T07:34:46.155Z,219
2023-03-22T07:36:00.383Z,202
2023-03-22T07:37:14.618Z,202
2023-03-22T07:38:28.912Z,202
2023-03-22T07:39:43.148Z,202
2023-03-22T07:40:57.371Z,202
2023-03-22T07:42:11.605Z,208
2023-03-22T07:43:25.839Z,219
2023-03-22T07:44:40.130Z,230
2023-03-22T07:45:54.375Z,241
2023-03-22T07:47:08.599Z,253
2023-03-22T07:48:22.953Z,264
2023-03-22T07:49:37.177Z,275
2023-03-22T07:50:51.476Z,281
2023-03-22T07:52:05.722Z,303
2023-03-22T07:53:19.932Z,326
2023-03-22T07:54:34.172Z,365
2023-03-22T07:55:48.527Z,405
2023-03-22T07:57:02.844Z,461
2023-03-22T07:58:17.068Z,511
2023-03-22T08:00:45.536Z,523
2023-03-22T08:01:59.753Z,506
2023-03-22T08:03:14.058Z,506
2023-03-22T08:04:28.301Z,495
2023-03-22T08:05:42.530Z,506
2023-03-22T08:06:56.746Z,489
2023-03-22T08:08:11.102Z,461
2023-03-22T08:09:25.389Z,461
2023-03-22T08:11:53.869Z,511
2023-03-22T08:13:08.099Z,511
2023-03-22T08:14:22.311Z,528
2023-03-22T08:16:50.859Z,585
2023-03-22T08:18:05.085Z,624
2023-03-22T08:19:19.318Z,669
2023-03-22T08:20:33.672Z,748
2023-03-22T08:21:47.980Z,770
2023-03-22T08:23:02.212Z,776
2023-03-22T08:24:16.453Z,742
2023-03-22T08:25:30.814Z,697
2023-03-22T08:26:45.047Z,725
2023-03-22T08:27:59.344Z,658
2023-03-22T08:29:13.576Z,635
2023-03-22T08:30:27.804Z,736
2023-03-22T08:31:42.037Z,624
2023-03-22T08:32:56.257Z,607
2023-03-22T08:34:10.567Z,562
2023-03-22T08:35:24.797Z,601
2023-03-22T08:36:39.018Z,613
2023-03-22T08:37:53.264Z,838
2023-03-22T08:39:07.490Z,967
2023-03-22T08:40:21.778Z,967
2023-03-22T08:41:36.013Z,950
2023-03-22T08:42:50.256Z,793
2023-03-22T08:45:18.692Z,466
2023-03-22T08:46:33.009Z,573
2023-03-22T08:47:47.248Z,551
2023-03-22T08:49:01.462Z,528
2023-03-22T08:50:15.698Z,793
2023-03-22T08:51:29.919Z,545
2023-03-22T08:52:44.210Z,562
2023-03-22T08:53:58.469Z,438
2023-03-22T08:55:12.693Z,483
2023-03-22T08:56:26.971Z,652
2023-03-22T08:57:40.309Z,658
2023-03-22T08:58:54.586Z,635
2023-03-22T09:00:08.871Z,860
2023-03-22T09:01:23.144Z,720
2023-03-22T09:02:37.444Z,1068
2023-03-22T09:03:51.746Z,765
2023-03-22T09:05:06.018Z,1226
2023-03-22T09:06:19.318Z,630
2023-03-22T09:07:33.545Z,495
2023-03-22T09:08:47.837Z,461
2023-03-22T09:10:02.089Z,489
2023-03-22T09:11:16.314Z,450
2023-03-22T09:12:30.527Z,613
2023-03-22T09:13:44.766Z,528
2023-03-22T09:14:59.067Z,573
2023-03-22T09:16:13.293Z,658
2023-03-22T09:17:27.522Z,978
2023-03-22T09:18:41.751Z,978
2023-03-22T09:19:55.983Z,1614
2023-03-22T09:21:10.274Z,798
2023-03-22T09:22:24.524Z,714
2023-03-22T09:23:38.738Z,669
2023-03-22T09:24:52.981Z,725
2023-03-22T09:26:07.198Z,618
2023-03-22T09:27:21.504Z,579
2023-03-22T09:28:35.748Z,472
2023-03-22T09:29:49.971Z,860
2023-03-22T09:31:04.326Z,753
2023-03-22T09:32:18.569Z,714
2023-03-22T09:33:32.868Z,697
2023-03-22T09:34:47.111Z,2008
2023-03-22T09:36:01.324Z,607
2023-03-22T09:37:15.557Z,669
2023-03-22T09:38:29.775Z,1153
2023-03-22T09:39:44.088Z,1321
2023-03-22T09:40:58.314Z,1153
2023-03-22T09:42:12.547Z,1068
2023-03-22T09:43:26.767Z,1136
2023-03-22T09:44:41.007Z,1006
2023-03-22T09:45:55.292Z,871
2023-03-22T09:47:09.538Z,838
2023-03-22T09:48:23.767Z,900
2023-03-22T09:49:37.986Z,798
2023-03-22T09:50:52.212Z,1524
2023-03-22T09:52:06.515Z,2368
2023-03-22T09:53:20.764Z,1181
2023-03-22T09:54:34.977Z,978
2023-03-22T09:55:49.220Z,759
2023-03-22T09:57:03.430Z,1636
2023-03-22T09:58:17.734Z,2328
2023-03-22T09:59:31.970Z,2548
2023-03-22T10:00:46.204Z,967
2023-03-22T10:02:00.497Z,1018
2023-03-22T10:03:13.813Z,742
2023-03-22T10:04:28.107Z,821
2023-03-22T10:05:42.380Z,652
2023-03-22T10:08:10.961Z,1935
2023-03-22T10:09:25.260Z,916
2023-03-22T10:10:39.542Z,534
2023-03-22T10:11:52.841Z,590
2023-03-22T10:13:07.061Z,2036
2023-03-22T10:14:21.360Z,691
2023-03-22T10:15:35.605Z,776
2023-03-22T10:16:49.833Z,388
2023-03-22T10:18:04.041Z,455
2023-03-22T10:19:18.284Z,405
2023-03-22T10:20:32.584Z,433
2023-03-22T10:21:46.822Z,511
2023-03-22T10:23:01.034Z,838
2023-03-22T10:24:15.268Z,1456
2023-03-22T10:25:29.490Z,832
2023-03-22T10:26:43.793Z,1321
2023-03-22T10:27:58.028Z,1282
2023-03-22T10:29:12.264Z,1080
2023-03-22T10:30:26.483Z,1389
2023-03-22T10:31:40.714Z,1271
2023-03-22T10:32:55.017Z,1125
2023-03-22T10:34:09.264Z,1282
2023-03-22T10:35:23.488Z,1456
2023-03-22T10:36:37.700Z,2098
2023-03-22T10:37:51.934Z,2221
2023-03-22T10:39:06.238Z,2356
2023-03-22T10:40:20.482Z,2227
2023-03-22T10:41:34.700Z,1935
2023-03-22T10:42:48.983Z,1816
2023-03-22T10:44:02.282Z,1018
2023-03-22T10:45:16.518Z,815
2023-03-22T10:46:30.747Z,871
2023-03-22T10:47:45.095Z,1456
2023-03-22T10:48:59.331Z,1108
2023-03-22T10:50:13.628Z,1158
2023-03-22T10:51:27.867Z,967
2023-03-22T10:52:42.098Z,1215
2023-03-22T10:53:56.320Z,1119
2023-03-22T10:55:10.542Z,956
2023-03-22T10:56:24.848Z,1254
2023-03-22T10:57:39.092Z,1035
2023-03-22T10:58:53.315Z,967
2023-03-22T11:00:07.527Z,855
2023-03-22T11:01:21.769Z,855
2023-03-22T11:02:36.056Z,888
2023-03-22T11:03:50.304Z,1040
2023-03-22T11:05:04.538Z,905
2023-03-22T11:06:18.756Z,1046
2023-03-22T11:07:32.985Z,1198
2023-03-22T11:08:47.291Z,1366
2023-03-22T11:10:01.529Z,1372
2023-03-22T11:11:15.741Z,1215
2023-03-22T11:12:29.984Z,821
2023-03-22T11:13:44.211Z,883
2023-03-22T11:14:58.502Z,725
2023-03-22T11:16:12.737Z,607
2023-03-22T11:17:26.976Z,849
2023-03-22T11:18:41.188Z,1136
2023-03-22T11:19:55.421Z,1051
2023-03-22T11:21:09.724Z,1794
2023-03-22T11:22:23.956Z,1766
2023-03-22T11:23:38.177Z,1001
2023-03-22T11:24:52.408Z,1575
2023-03-22T11:26:06.633Z,1276
2023-03-22T11:27:20.946Z,1440
2023-03-22T11:28:35.188Z,1845
2023-03-22T11:29:49.404Z,1243
2023-03-22T11:31:03.636Z,1496
2023-03-22T11:32:17.862Z,1215
2023-03-22T11:33:32.215Z,1310
2023-03-22T11:34:46.498Z,1119
2023-03-22T11:35:59.859Z,1057
2023-03-22T11:37:13.190Z,1029
2023-03-22T11:38:27.459Z,995
2023-03-22T11:39:41.752Z,900
2023-03-22T11:40:55.045Z,855
2023-03-22T11:42:09.352Z,821
2023-03-22T11:43:23.592Z,770
2023-03-22T11:44:37.808Z,725
2023-03-22T11:45:52.047Z,703
2023-03-22T11:48:20.560Z,697
2023-03-22T11:49:34.812Z,708
2023-03-22T11:50:49.041Z,759
2023-03-22T11:52:03.257Z,815
2023-03-22T11:53:17.478Z,894
2023-03-22T11:54:31.773Z,911
2023-03-22T11:55:46.015Z,815
2023-03-22T11:57:00.247Z,916
2023-03-22T11:58:14.468Z,871
2023-03-22T11:59:28.700Z,787
2023-03-22T12:00:43.000Z,815
2023-03-22T12:01:57.234Z,793
2023-03-22T12:03:11.471Z,765
2023-03-22T12:04:25.705Z,725
2023-03-22T12:05:39.913Z,697
2023-03-22T12:06:54.220Z,686
2023-03-22T12:08:08.470Z,680
2023-03-22T12:09:22.690Z,658
2023-03-22T12:10:36.918Z,635
2023-03-22T12:11:51.192Z,607
2023-03-22T12:13:05.492Z,579
2023-03-22T12:14:19.772Z,562
2023-03-22T12:15:33.077Z,540
2023-03-22T12:16:47.310Z,511
2023-03-22T12:19:15.844Z,466
2023-03-22T12:20:30.063Z,455
2023-03-22T12:21:44.285Z,466
2023-03-22T12:22:58.515Z,466
2023-03-22T12:24:12.812Z,450
2023-03-22T12:25:27.054Z,438
2023-03-22T12:26:41.283Z,438
2023-03-22T12:27:55.509Z,444
2023-03-22T12:29:09.737Z,433
2023-03-22T12:30:24.040Z,433
2023-03-22T12:31:38.280Z,438
2023-03-22T12:32:52.509Z,444
2023-03-22T12:34:06.734Z,438
2023-03-22T12:35:20.950Z,427
2023-03-22T12:36:35.253Z,405
2023-03-22T12:37:49.518Z,376
2023-03-22T12:39:03.717Z,354
2023-03-22T12:40:17.957Z,343
2023-03-22T12:41:32.181Z,331
2023-03-22T12:42:46.477Z,326
2023-03-22T12:44:00.718Z,320
2023-03-22T12:45:14.952Z,320
2023-03-22T12:46:29.226Z,326
2023-03-22T12:47:42.564Z,343
2023-03-22T12:48:56.851Z,343
2023-03-22T12:50:11.140Z,320
2023-03-22T12:51:24.425Z,292
2023-03-22T12:52:38.740Z,281
2023-03-22T12:53:52.981Z,315
2023-03-22T12:55:07.198Z,320
2023-03-22T12:56:21.435Z,320
2023-03-22T12:57:35.660Z,315
2023-03-22T12:58:49.948Z,309
2023-03-22T13:00:04.202Z,303
2023-03-22T13:01:18.425Z,298
2023-03-22T13:02:32.641Z,292
2023-03-22T13:03:46.881Z,275
2023-03-22T13:05:01.171Z,258
2023-03-22T13:06:15.419Z,247
2023-03-22T13:07:29.647Z,241
2023-03-22T13:08:43.871Z,241
2023-03-22T13:09:58.086Z,264
2023-03-22T13:11:12.398Z,292
2023-03-22T13:12:26.639Z,315
2023-03-22T13:13:40.853Z,337
2023-03-22T13:16:09.307Z,365
2023-03-22T13:17:23.621Z,360
2023-03-22T13:18:37.845Z,376
2023-03-22T13:19:52.087Z,405
2023-03-22T13:21:06.313Z,421
2023-03-22T13:22:20.593Z,433
2023-03-22T13:23:34.891Z,466
2023-03-22T13:24:49.172Z,517
2023-03-22T13:26:02.459Z,545
2023-03-22T13:27:16.690Z,562
2023-03-22T13:28:30.990Z,534
2023-03-22T13:29:45.230Z,478
2023-03-22T13:30:59.460Z,427
2023-03-22T13:32:13.694Z,399
2023-03-22T13:33:27.901Z,399
2023-03-22T13:34:42.208Z,399
2023-03-22T13:35:56.447Z,405
2023-03-22T13:37:10.679Z,410
2023-03-22T13:38:24.895Z,405
2023-03-22T13:39:39.123Z,365
2023-03-22T13:40:53.429Z,320
2023-03-22T13:42:07.680Z,298
2023-03-22T13:43:21.899Z,292
2023-03-22T13:44:36.120Z,292
2023-03-22T13:45:50.348Z,298
2023-03-22T13:47:04.646Z,270
2023-03-22T13:48:18.884Z,253
2023-03-22T13:49:33.117Z,247
2023-03-22T13:50:47.462Z,247
2023-03-22T13:52:01.693Z,236
2023-03-22T13:53:15.987Z,225
2023-03-22T13:54:30.225Z,230
2023-03-22T13:55:44.459Z,241
2023-03-22T13:56:58.677Z,230
2023-03-22T13:58:12.906Z,225
2023-03-22T13:59:27.203Z,236
2023-03-22T14:00:41.462Z,241
2023-03-22T14:01:55.668Z,247
2023-03-22T14:03:09.912Z,258
2023-03-22T14:04:24.128Z,264
2023-03-22T14:05:38.431Z,275
2023-03-22T14:06:52.666Z,309
2023-03-22T14:08:06.893Z,320
2023-03-22T14:09:21.131Z,298
2023-03-22T14:10:35.350Z,264
2023-03-22T14:11:49.641Z,292
2023-03-22T14:13:03.884Z,348
2023-03-22T14:14:18.114Z,405
2023-03-22T14:15:32.346Z,438
2023-03-22T14:16:46.563Z,410
2023-03-22T14:18:00.875Z,388
2023-03-22T14:19:15.102Z,354
2023-03-22T14:20:29.340Z,337
2023-03-22T14:21:43.562Z,326
2023-03-22T14:52:38.956Z,202
2023-03-22T14:53:53.258Z,213
2023-03-22T14:55:07.496Z,213
2023-03-22T14:56:21.720Z,219
2023-03-22T14:57:35.933Z,236
2023-03-22T14:58:50.166Z,253
2023-03-22T15:00:04.462Z,241
2023-03-22T15:01:18.701Z,202
2023-03-22T15:02:32.932Z,157
2023-03-22T15:03:47.164Z,140
2023-03-22T15:05:01.385Z,174
2023-03-22T15:06:15.696Z,208
2023-03-22T15:07:29.922Z,219
2023-03-22T15:08:44.150Z,219
2023-03-22T15:11:12.600Z,219
2023-03-22T15:12:26.917Z,213
2023-03-22T15:13:41.154Z,196
2023-03-22T15:14:55.375Z,191
2023-03-22T15:16:09.628Z,230
2023-03-22T15:17:23.826Z,247
2023-03-22T15:18:38.130Z,219
2023-03-22T15:21:06.586Z,208
2023-03-22T15:22:20.830Z,191
2023-03-22T15:23:35.042Z,163
2023-03-22T15:24:49.346Z,135
2023-03-22T15:26:03.645Z,118
2023-03-22T15:27:16.948Z,140
2023-03-22T15:29:45.471Z,135
2023-03-22T15:30:59.698Z,140
2023-03-22T15:32:13.939Z,146
2023-03-22T15:33:28.158Z,163
2023-03-22T15:34:42.388Z,180
2023-03-22T15:35:56.686Z,174
2023-03-22T15:38:25.151Z,174
2023-03-22T15:39:39.379Z,163
2023-03-22T15:40:53.595Z,140
2023-03-22T15:42:07.897Z,140
2023-03-22T15:43:22.141Z,123
2023-03-22T15:44:36.364Z,106
2023-03-22T15:45:50.607Z,106
2023-03-22T15:47:04.828Z,101
2023-03-22T15:48:19.124Z,95
2023-03-22T15:49:33.373Z,95
2023-03-22T15:50:47.601Z,95
2023-03-22T15:52:01.814Z,95
2023-03-22T15:53:16.040Z,84
2023-03-22T15:54:30.352Z,73
2023-03-22T15:56:58.805Z,84
2023-03-22T15:58:13.098Z,78
2023-03-22T15:59:26.438Z,90
2023-03-22T16:00:40.703Z,101
2023-03-22T16:01:54.013Z,101
2023-03-22T16:03:08.240Z,112
2023-03-22T16:04:22.531Z,123
2023-03-22T16:05:36.774Z,129
2023-03-22T16:06:51.007Z,129
2023-03-22T16:08:05.217Z,123
2023-03-22T16:09:19.443Z,123
2023-03-22T16:10:33.755Z,129
2023-03-22T16:11:47.983Z,140
2023-03-22T16:13:02.218Z,140
2023-03-22T16:14:16.436Z,129
2023-03-22T16:15:30.671Z,112
2023-03-22T16:16:44.967Z,101
2023-03-22T16:17:59.211Z,101
2023-03-22T16:19:13.443Z,101
2023-03-22T16:20:27.667Z,101
2023-03-22T16:21:41.884Z,106
2023-03-22T16:22:56.189Z,106
2023-03-22T16:24:10.440Z,106
2023-03-22T16:25:24.663Z,106
2023-03-22T16:26:38.893Z,101
2023-03-22T16:27:53.118Z,101
2023-03-22T16:29:07.407Z,95
2023-03-22T16:30:21.645Z,84
2023-03-22T16:31:35.886Z,67
2023-03-22T16:32:50.160Z,56
2023-03-22T16:34:04.532Z,50
2023-03-22T16:35:18.823Z,61
2023-03-22T16:36:33.077Z,61
2023-03-22T16:37:47.293Z,61
2023-03-22T16:39:01.523Z,56
2023-03-22T16:40:15.757Z,61
2023-03-22T16:41:30.039Z,67
2023-03-22T16:42:44.283Z,73
2023-03-22T16:43:58.520Z,67
2023-03-22T16:45:12.752Z,61
2023-03-22T16:46:26.975Z,61
2023-03-22T16:47:41.270Z,61
2023-03-22T16:48:55.518Z,61
2023-03-22T16:50:09.730Z,67
2023-03-22T16:51:23.968Z,67
2023-03-22T16:52:38.180Z,61
2023-03-22T16:55:06.726Z,50
2023-03-22T16:56:20.953Z,45
2023-03-22T16:57:35.173Z,45
2023-03-22T16:58:49.397Z,45
2023-03-22T17:00:03.712Z,45
2023-03-22T17:01:17.942Z,45
2023-03-22T17:02:32.175Z,45
2023-03-22T17:03:46.394Z,50
2023-03-22T17:05:00.692Z,50
2023-03-22T17:06:14.980Z,50
2023-03-22T17:07:29.269Z,45
2023-03-22T17:08:42.565Z,39
2023-03-22T17:09:56.781Z,39
2023-03-22T17:11:11.100Z,39
2023-03-22T17:12:25.326Z,39
2023-03-22T17:13:39.559Z,33
2023-03-22T17:14:53.792Z,33
2023-03-22T17:16:08.014Z,33
2023-03-22T17:17:22.315Z,33
2023-03-22T17:18:36.547Z,39
2023-03-22T17:19:50.771Z,39
2023-03-22T17:21:05.009Z,33
2023-03-22T17:22:19.220Z,33
2023-03-22T17:23:33.527Z,28
2023-03-22T17:24:47.759Z,28
2023-03-22T17:26:01.990Z,22
2023-03-22T17:27:16.215Z,22
2023-03-22T17:28:30.448Z,22
2023-03-22T17:29:44.744Z,16
2023-03-22T17:30:58.983Z,16
2023-03-22T17:32:13.215Z,11
2023-03-22T17:33:27.437Z,11
2023-03-22T17:34:41.663Z,11
2023-03-22T17:35:55.970Z,5
2023-03-22T17:37:10.207Z,5
2023-03-22T17:38:24.427Z,5
2023-03-22T17:39:38.728Z,5
2023-03-22T17:40:52.042Z,5
2023-03-22T17:42:06.339Z,5
2023-03-22T17:43:19.621Z,5
2023-03-22T17:44:33.865Z,0
2023-03-22T17:45:48.158Z,0
2023-03-22T17:47:02.395Z,0
2023-03-22T17:48:16.629Z,0
2023-03-22T17:49:30.847Z,0
2023-03-22T17:50:45.084Z,0
2023-03-22T17:51:59.367Z,0
2023-03-22T17:53:13.609Z,0
2023-03-22T17:54:27.842Z,0
2023-03-22T17:55:42.060Z,0
2023-03-22T17:56:56.297Z,0
2023-03-22T17:58:10.602Z,0
2023-03-22T17:59:24.842Z,0
2023-03-22T18:00:39.050Z,0
2023-03-22T18:01:53.279Z,0
2023-03-22T18:03:07.519Z,0
2023-03-22T18:04:21.805Z,0
2023-03-22T18:05:36.051Z,0
2023-03-22T18:06:50.269Z,0
2023-03-22T18:08:04.502Z,0
2023-03-22T18:09:18.726Z,0
2023-03-22T18:10:33.040Z,0
2023-03-22T18:11:47.283Z,0
2023-03-22T18:13:01.559Z,0
2023-03-22T18:14:15.910Z,0
2023-03-22T18:15:30.260Z,0
2023-03-22T18:16:44.529Z,0
2023-03-22T18:17:57.839Z,0
2023-03-22T18:19:12.053Z,0
2023-03-22T18:20:26.405Z,0
2023-03-22T18:21:40.728Z,0
2023-03-22T18:22:55.021Z,0
2023-03-22T18:24:09.292Z,0
2023-03-22T18:25:23.662Z,0
2023-03-22T18:26:37.000Z,0
2023-03-22T18:27:52.235Z,0
2023-03-22T18:29:06.516Z,0
2023-03-22T18:30:20.916Z,0
2023-03-22T18:31:35.254Z,0
2023-03-22T18:32:49.538Z,0
2023-03-22T18:34:03.804Z,0
2023-03-22T18:35:18.218Z,0
2023-03-22T18:36:32.548Z,0
2023-03-22T18:37:46.818Z,0
2023-03-22T18:39:01.100Z,0
2023-03-22T18:40:15.514Z,0
2023-03-22T18:41:29.840Z,0